createdAt,value
2023-03-20T00:00:17.297Z,6.68
2023-03-20T00:03:19.293Z,6.28
2023-03-20T00:06:23.318Z,7.07
2023-03-20T00:09:25.722Z,7.28
2023-03-20T00:12:29.568Z,6.70
2023-03-20T00:15:35.238Z,6.72
2023-03-20T00:18:37.771Z,6.78
2023-03-20T00:21:40.054Z,7.50
2023-03-20T00:24:42.998Z,7.57
2023-03-20T00:27:48.042Z,7.43
2023-03-20T00:30:50.304Z,8.88
2023-03-20T00:33:54.965Z,8.63
2023-03-20T00:36:57.405Z,10.07
2023-03-20T00:39:59.642Z,10.52
2023-03-20T00:43:04.797Z,9.70
2023-03-20T00:46:12.423Z,8.57
2023-03-20T00:49:14.547Z,7.82
2023-03-20T00:52:17.843Z,7.78
2023-03-20T00:55:21.930Z,7.22
2023-03-20T00:58:25.853Z,10.48
2023-03-20T01:01:29.198Z,9.52
2023-03-20T01:04:35.827Z,8.73
2023-03-20T01:07:39.847Z,8.40
2023-03-20T01:10:43.215Z,9.15
2023-03-20T01:13:47.315Z,9.32
2023-03-20T01:16:49.576Z,10.23
2023-03-20T01:19:51.768Z,9.23
2023-03-20T01:22:53.654Z,8.43
2023-03-20T01:25:55.516Z,10.15
2023-03-20T01:28:58.816Z,10.57
2023-03-20T01:32:01.144Z,10.70
2023-03-20T01:35:03.471Z,10.85
2023-03-20T01:38:13.619Z,10.88
2023-03-20T01:41:17.399Z,9.80
2023-03-20T01:44:23.973Z,10.35
2023-03-20T01:47:25.809Z,10.55
2023-03-20T01:50:31.661Z,9.45
2023-03-20T01:53:33.923Z,10.15
2023-03-20T01:56:41.832Z,9.10
2023-03-20T01:59:48.440Z,9.70
2023-03-20T02:02:51.809Z,9.25
2023-03-20T02:05:55.272Z,9.00
2023-03-20T02:08:57.049Z,9.20
2023-03-20T02:12:00.309Z,8.88
2023-03-20T02:15:03.872Z,9.38
2023-03-20T02:18:05.791Z,9.32
2023-03-20T02:21:57.343Z,9.13
2023-03-20T02:28:47.820Z,10.35
2023-03-20T02:32:41.342Z,9.98
2023-03-20T02:36:31.410Z,10.00
2023-03-20T02:39:52.018Z,10.40
2023-03-20T02:43:03.396Z,10.93
2023-03-20T02:46:14.995Z,10.35
2023-03-20T02:49:33.946Z,11.20
2023-03-20T02:52:49.653Z,10.95
2023-03-20T02:56:02.590Z,11.27
2023-03-20T02:59:12.698Z,10.90
2023-03-20T03:02:27.192Z,11.30
2023-03-20T03:05:36.817Z,11.07
2023-03-20T03:08:45.168Z,11.57
2023-03-20T03:11:51.877Z,11.73
2023-03-20T03:14:59.672Z,12.13
2023-03-20T03:18:05.762Z,12.27
2023-03-20T03:21:09.746Z,11.80
2023-03-20T03:24:39.877Z,12.30
2023-03-20T03:27:49.160Z,13.35
2023-03-20T03:30:52.607Z,12.23
2023-03-20T03:33:57.814Z,12.73
2023-03-20T03:37:06.544Z,12.82
2023-03-20T03:40:17.056Z,13.43
2023-03-20T03:43:27.654Z,13.13
2023-03-20T03:46:44.566Z,13.60
2023-03-20T03:49:52.051Z,12.43
2023-03-20T03:52:57.197Z,13.38
2023-03-20T03:56:03.676Z,13.93
2023-03-20T03:59:11.811Z,14.80
2023-03-20T04:02:17.086Z,15.93
2023-03-20T04:05:20.503Z,15.60
2023-03-20T04:08:22.306Z,15.85
2023-03-20T04:11:28.166Z,16.05
2023-03-20T04:14:31.927Z,17.25
2023-03-20T04:17:35.326Z,18.80
2023-03-20T04:20:37.158Z,17.00
2023-03-20T04:23:39.147Z,16.05
2023-03-20T04:26:42.279Z,17.58
2023-03-20T04:29:45.795Z,16.55
2023-03-20T04:32:48.132Z,16.70
2023-03-20T04:35:50.882Z,15.95
2023-03-20T04:38:54.615Z,15.77
2023-03-20T04:41:58.664Z,16.00
2023-03-20T04:45:02.902Z,16.65
2023-03-20T04:48:05.128Z,14.90
2023-03-20T04:51:07.960Z,15.35
2023-03-20T04:54:10.272Z,14.20
2023-03-20T04:57:12.410Z,14.85
2023-03-20T05:00:17.024Z,14.85
2023-03-20T05:03:19.874Z,14.27
2023-03-20T05:06:22.956Z,14.48
2023-03-20T05:09:24.856Z,14.85
2023-03-20T05:12:27.142Z,13.55
2023-03-20T05:15:30.814Z,13.70
2023-03-20T05:18:32.684Z,13.80
2023-03-20T05:21:34.644Z,15.75
2023-03-20T05:24:36.921Z,15.10
2023-03-20T05:27:39.204Z,14.93
2023-03-20T05:30:42.478Z,16.08
2023-03-20T05:33:44.306Z,14.43
2023-03-20T05:36:46.157Z,14.45
2023-03-20T05:39:48.056Z,13.07
2023-03-20T05:42:49.826Z,12.43
2023-03-20T05:45:54.207Z,11.93
2023-03-20T05:48:58.029Z,11.57
2023-03-20T05:51:59.929Z,11.80
2023-03-20T05:55:01.866Z,12.40
2023-03-20T05:58:03.672Z,11.23
2023-03-20T06:01:07.347Z,10.55
2023-03-20T06:04:10.191Z,10.63
2023-03-20T06:07:12.162Z,10.07
2023-03-20T06:10:13.930Z,10.90
2023-03-20T06:13:15.994Z,10.32
2023-03-20T06:16:19.690Z,10.10
2023-03-20T06:19:22.172Z,9.80
2023-03-20T06:22:24.110Z,9.52
2023-03-20T06:25:26.205Z,10.50
2023-03-20T06:28:28.193Z,11.07
2023-03-20T06:31:31.914Z,9.45
2023-03-20T06:34:36.439Z,11.43
2023-03-20T06:37:38.550Z,13.02
2023-03-20T06:40:40.719Z,14.75
2023-03-20T06:43:42.620Z,15.00
2023-03-20T06:46:46.005Z,16.27
2023-03-20T06:49:47.916Z,16.05
2023-03-20T06:52:49.817Z,15.80
2023-03-20T06:55:54.385Z,15.90
2023-03-20T06:58:56.602Z,15.93
2023-03-20T07:01:59.968Z,15.50
2023-03-20T07:05:02.280Z,16.40
2023-03-20T07:08:04.519Z,14.70
2023-03-20T07:11:07.408Z,13.82
2023-03-20T07:14:09.641Z,15.45
2023-03-20T07:17:13.166Z,13.13
2023-03-20T07:20:15.659Z,12.45
2023-03-20T07:23:17.589Z,13.30
2023-03-20T07:26:19.657Z,14.10
2023-03-20T07:29:21.471Z,13.45
2023-03-20T07:32:24.873Z,12.13
2023-03-20T07:35:27.084Z,11.57
2023-03-20T07:41:51.853Z,11.60
2023-03-20T07:44:54.143Z,10.93
2023-03-20T07:48:00.706Z,11.13
2023-03-20T07:51:02.856Z,9.52
2023-03-20T07:54:06.425Z,10.45
2023-03-20T07:57:08.372Z,8.95
2023-03-20T08:00:13.165Z,9.10
2023-03-20T08:03:16.810Z,8.82
2023-03-20T08:06:19.062Z,8.85
2023-03-20T08:09:21.144Z,8.88
2023-03-20T08:12:22.976Z,8.07
2023-03-20T08:15:24.975Z,9.10
2023-03-20T08:18:29.647Z,8.52
2023-03-20T08:21:33.246Z,7.63
2023-03-20T08:24:35.192Z,7.10
2023-03-20T08:27:37.787Z,6.35
2023-03-20T08:30:40.824Z,6.13
2023-03-20T08:33:44.282Z,5.80
2023-03-20T08:36:47.163Z,5.97
2023-03-20T08:39:49.434Z,5.63
2023-03-20T08:42:51.306Z,5.78
2023-03-20T08:45:53.460Z,4.90
2023-03-20T08:48:56.865Z,4.50
2023-03-20T08:51:59.978Z,4.93
2023-03-20T08:55:02.256Z,4.80
2023-03-20T08:58:04.586Z,5.18
2023-03-20T09:01:10.096Z,5.45
2023-03-20T09:04:14.862Z,5.05
2023-03-20T09:07:19.193Z,5.10
2023-03-20T09:10:21.517Z,5.57
2023-03-20T09:13:27.456Z,6.07
2023-03-20T09:16:29.920Z,5.88
2023-03-20T09:19:34.853Z,6.60
2023-03-20T09:22:38.349Z,6.13
2023-03-20T09:25:40.875Z,6.15
2023-03-20T09:28:45.309Z,6.07
2023-03-20T09:31:47.368Z,6.00
2023-03-20T09:34:50.670Z,5.70
2023-03-20T09:41:20.564Z,5.60
2023-03-20T09:44:37.437Z,5.72
2023-03-20T09:47:47.434Z,5.18
2023-03-20T09:50:58.198Z,5.53
2023-03-20T09:54:04.949Z,5.75
2023-03-20T09:57:13.775Z,5.22
2023-03-20T10:00:19.202Z,5.78
2023-03-20T10:03:25.020Z,5.40
2023-03-20T10:06:29.535Z,6.18
2023-03-20T10:09:33.399Z,5.57
2023-03-20T10:12:51.059Z,5.35
2023-03-20T10:15:57.730Z,4.30
2023-03-20T10:19:08.892Z,5.68
2023-03-20T10:22:20.923Z,4.88
2023-03-20T10:25:28.829Z,4.82
2023-03-20T10:28:37.717Z,4.82
2023-03-20T10:31:46.459Z,4.88
2023-03-20T10:35:01.325Z,5.50
2023-03-20T10:38:21.450Z,4.45
2023-03-20T10:41:29.950Z,4.78
2023-03-20T10:44:36.854Z,4.83
2023-03-20T10:47:42.897Z,5.03
2023-03-20T10:50:48.936Z,5.20
2023-03-20T10:53:54.877Z,5.47
2023-03-20T10:56:59.643Z,5.18
2023-03-20T11:00:05.330Z,5.70
2023-03-20T11:03:08.276Z,6.20
2023-03-20T11:06:18.427Z,6.18
2023-03-20T11:09:24.250Z,5.65
2023-03-20T11:12:33.286Z,5.80
2023-03-20T11:15:38.143Z,6.13
2023-03-20T11:18:42.170Z,6.25
2023-03-20T11:21:47.428Z,7.25
2023-03-20T11:24:55.125Z,6.82
2023-03-20T11:28:19.851Z,6.65
2023-03-20T11:31:30.841Z,8.57
2023-03-20T11:34:37.470Z,7.35
2023-03-20T11:37:46.949Z,7.38
2023-03-20T11:40:52.194Z,7.18
2023-03-20T11:43:55.044Z,6.78
2023-03-20T11:47:01.703Z,6.68
2023-03-20T11:50:07.874Z,6.30
2023-03-20T11:53:43.075Z,7.10
2023-03-20T11:56:55.050Z,6.65
2023-03-20T11:59:57.934Z,6.43
2023-03-20T12:03:00.338Z,6.45
2023-03-20T12:06:05.207Z,4.93
2023-03-20T12:09:21.141Z,5.80
2023-03-20T12:12:37.369Z,6.35
2023-03-20T12:15:44.767Z,5.65
2023-03-20T12:18:49.517Z,6.68
2023-03-20T12:21:59.008Z,6.15
2023-03-20T12:28:17.583Z,6.60
2023-03-20T12:31:26.817Z,6.72
2023-03-20T12:34:35.314Z,7.35
2023-03-20T12:37:37.206Z,7.33
2023-03-20T12:40:44.040Z,7.60
2023-03-20T12:44:18.512Z,7.22
2023-03-20T12:47:47.301Z,7.20
2023-03-20T12:50:54.722Z,7.13
2023-03-20T12:54:10.576Z,7.22
2023-03-20T12:57:24.613Z,7.25
2023-03-20T13:00:33.764Z,8.27
2023-03-20T13:03:52.600Z,7.88
2023-03-20T13:06:56.591Z,7.18
2023-03-20T13:10:09.372Z,7.03
2023-03-20T13:13:21.682Z,7.72
2023-03-20T13:16:36.231Z,6.75
2023-03-20T13:19:47.346Z,7.10
2023-03-20T13:23:01.263Z,7.45
2023-03-20T13:26:14.925Z,6.93
2023-03-20T13:29:27.550Z,7.18
2023-03-20T13:32:41.357Z,6.60
2023-03-20T13:35:54.563Z,6.65
2023-03-20T13:39:03.454Z,6.00
2023-03-20T13:42:12.838Z,5.55
2023-03-20T13:48:33.493Z,2.97
2023-03-20T13:51:42.189Z,3.00
2023-03-20T13:55:08.690Z,2.83
2023-03-20T13:58:25.904Z,2.75
2023-03-20T14:01:39.203Z,2.97
2023-03-20T14:04:41.880Z,3.00
2023-03-20T14:07:49.065Z,3.63
2023-03-20T14:11:05.971Z,3.45
2023-03-20T14:14:14.919Z,3.67
2023-03-20T14:17:21.761Z,3.80
2023-03-20T14:20:32.152Z,3.85
2023-03-20T14:23:38.077Z,3.40
2023-03-20T14:26:41.751Z,3.28
2023-03-20T14:29:44.080Z,3.30
2023-03-20T14:33:00.367Z,3.15
2023-03-20T14:36:18.172Z,3.17
2023-03-20T14:39:34.939Z,3.47
2023-03-20T14:42:43.130Z,2.90
2023-03-20T14:45:52.256Z,3.22
2023-03-20T14:48:56.259Z,3.47
2023-03-20T14:52:10.562Z,2.17
2023-03-20T14:55:34.030Z,2.60
2023-03-20T14:58:52.324Z,2.03
2023-03-20T15:01:58.462Z,1.42
2023-03-20T15:05:00.635Z,1.50
2023-03-20T15:08:07.333Z,1.60
2023-03-20T15:11:13.970Z,2.00
2023-03-20T15:14:22.771Z,2.05
2023-03-20T15:17:27.499Z,2.35
2023-03-20T15:20:29.391Z,2.20
2023-03-20T15:23:35.418Z,2.00
2023-03-20T15:26:39.786Z,2.53
2023-03-20T15:29:46.906Z,2.85
2023-03-20T15:32:52.911Z,2.33
2023-03-20T15:35:56.036Z,2.75
2023-03-20T15:39:11.510Z,2.70
2023-03-20T15:42:17.604Z,3.08
2023-03-20T15:45:25.351Z,2.60
2023-03-20T15:48:27.771Z,2.85
2023-03-20T15:51:30.701Z,2.78
2023-03-20T15:54:34.045Z,3.20
2023-03-20T15:57:40.715Z,2.85
2023-03-20T16:00:46.379Z,3.17
2023-03-20T16:03:49.072Z,2.80
2023-03-20T16:06:55.613Z,2.70
2023-03-20T16:09:58.272Z,3.53
2023-03-20T16:13:03.157Z,3.00
2023-03-20T16:16:08.661Z,2.92
2023-03-20T16:19:12.933Z,3.92
2023-03-20T16:22:25.812Z,3.22
2023-03-20T16:25:27.848Z,3.28
2023-03-20T16:28:36.578Z,2.72
2023-03-20T16:31:45.711Z,3.35
2023-03-20T16:34:51.535Z,3.05
2023-03-20T16:41:28.330Z,3.38
2023-03-20T16:44:35.272Z,4.47
2023-03-20T16:47:39.922Z,3.85
2023-03-20T16:50:43.796Z,3.70
2023-03-20T16:53:47.899Z,3.65
2023-03-20T16:56:54.037Z,3.72
2023-03-20T17:03:30.491Z,5.25
2023-03-20T17:06:38.036Z,3.72
2023-03-20T17:09:54.846Z,3.47
2023-03-20T17:12:57.839Z,3.67
2023-03-20T17:16:01.871Z,3.80
2023-03-20T17:19:09.593Z,3.90
2023-03-20T17:22:16.130Z,3.80
2023-03-20T17:28:44.054Z,4.30
2023-03-20T17:31:47.742Z,4.35
2023-03-20T17:34:50.768Z,4.43
2023-03-20T17:37:53.505Z,4.60
2023-03-20T17:40:57.199Z,4.78
2023-03-20T17:43:59.532Z,4.07
2023-03-20T17:47:03.637Z,4.30
2023-03-20T17:50:09.421Z,4.13
2023-03-20T17:53:18.716Z,4.60
2023-03-20T17:59:25.619Z,7.10
2023-03-20T18:02:31.800Z,6.65
2023-03-20T18:05:36.636Z,6.25
2023-03-20T18:08:40.413Z,5.15
2023-03-20T18:11:43.203Z,4.43
2023-03-20T18:14:46.682Z,6.72
2023-03-20T18:17:51.371Z,10.10
2023-03-20T18:20:56.748Z,10.90
2023-03-20T18:23:59.807Z,11.30
2023-03-20T18:27:04.645Z,7.60
2023-03-20T18:30:17.988Z,15.85
2023-03-20T18:33:22.668Z,6.72
2023-03-20T18:36:25.462Z,7.63
2023-03-20T18:39:28.362Z,8.85
2023-03-20T18:42:31.446Z,5.63
2023-03-20T18:45:36.118Z,5.45
2023-03-20T18:48:41.172Z,5.53
2023-03-20T18:51:44.452Z,6.40
2023-03-20T18:54:48.981Z,5.28
2023-03-20T18:57:52.189Z,5.00
2023-03-20T19:00:56.609Z,6.25
2023-03-20T19:04:01.651Z,5.70
2023-03-20T19:07:05.075Z,8.48
2023-03-20T19:10:26.262Z,7.03
2023-03-20T19:13:30.352Z,9.13
2023-03-20T19:16:37.075Z,7.28
2023-03-20T19:19:44.164Z,5.32
2023-03-20T19:22:47.053Z,6.47
2023-03-20T19:25:51.789Z,5.80
2023-03-20T19:28:54.475Z,5.90
2023-03-20T19:31:58.149Z,5.72
2023-03-20T19:38:27.441Z,5.07
2023-03-20T19:41:32.149Z,5.00
2023-03-20T19:44:36.028Z,5.57
2023-03-20T19:47:41.462Z,12.52
2023-03-20T19:50:49.561Z,9.00
2023-03-20T19:53:54.124Z,7.82
2023-03-20T19:57:00.983Z,5.75
2023-03-20T20:03:29.795Z,4.35
2023-03-20T20:06:39.794Z,4.38
2023-03-20T20:09:43.673Z,5.32
2023-03-20T20:12:47.040Z,4.93
2023-03-20T20:15:54.133Z,3.92
2023-03-20T20:18:57.416Z,3.92
2023-03-20T20:22:25.683Z,3.67
2023-03-20T20:25:28.593Z,4.07
2023-03-20T20:28:42.139Z,3.78
2023-03-20T20:31:45.783Z,3.15
2023-03-20T20:35:35.685Z,3.70
2023-03-20T20:41:44.166Z,3.45
2023-03-20T20:44:46.700Z,3.70
2023-03-20T20:47:50.360Z,4.65
2023-03-20T20:50:53.582Z,3.45
2023-03-20T20:53:57.732Z,3.75
2023-03-20T20:57:02.034Z,8.55
2023-03-20T21:00:09.026Z,4.35
2023-03-20T21:03:14.387Z,2.97
2023-03-20T21:06:17.811Z,2.95
2023-03-20T21:09:22.259Z,3.33
2023-03-20T21:12:36.373Z,3.97
2023-03-20T21:15:42.831Z,4.70
2023-03-20T21:18:45.566Z,4.25
2023-03-20T21:21:47.400Z,3.42
2023-03-20T21:24:53.809Z,4.47
2023-03-20T21:28:00.772Z,4.10
2023-03-20T21:31:23.476Z,4.28
2023-03-20T21:34:27.281Z,4.20
2023-03-20T21:40:55.192Z,3.13
2023-03-20T21:44:00.770Z,4.15
2023-03-20T21:48:04.275Z,4.78
2023-03-20T21:54:48.524Z,8.25
2023-03-20T21:58:15.143Z,10.15
2023-03-20T22:01:23.198Z,8.75
2023-03-20T22:07:56.288Z,4.63
2023-03-20T22:15:12.044Z,7.32
2023-03-20T22:18:28.808Z,6.38
2023-03-20T22:28:28.495Z,5.10
2023-03-20T22:45:01.769Z,6.65
2023-03-20T22:48:06.984Z,6.20
2023-03-20T22:51:09.232Z,5.88
2023-03-20T22:54:11.092Z,6.88
2023-03-20T22:57:15.877Z,7.30
2023-03-20T23:00:22.344Z,6.82
2023-03-20T23:03:40.330Z,6.10
2023-03-20T23:06:45.370Z,7.47
2023-03-20T23:09:47.592Z,6.95
2023-03-20T23:12:49.664Z,7.60
2023-03-20T23:15:51.924Z,7.65
2023-03-20T23:18:55.068Z,6.65
2023-03-20T23:21:58.232Z,7.55
2023-03-20T23:25:11.580Z,7.45
2023-03-20T23:28:17.003Z,7.72
2023-03-20T23:31:24.409Z,7.90
2023-03-20T23:34:29.982Z,7.72
2023-03-20T23:37:31.774Z,8.00
2023-03-20T23:40:34.002Z,7.60
2023-03-20T23:43:35.869Z,8.05
2023-03-20T23:46:39.530Z,7.95
2023-03-20T23:49:43.118Z,8.05
2023-03-20T23:52:49.962Z,7.80
2023-03-20T23:55:59.593Z,7.53
2023-03-20T23:59:11.546Z,7.25
